Time;durP1;ratioP1;P1;durP2;ratioP2;P2;SDS_P1;SDS_P2;PMS_P1;PMS_P2;Temp;Humidity;BMP_temperature;BMP_pressure;BME280_temperature;BME280_humidity;BME280_pressure;Samples;Min_cycle;Max_cycle;Signal;HPM_P1;HPM_P2
2022/04/09 00:02:00;;;;;;;0.43;0.43;;;;;;;;;;5104429;28;20196;-67
2022/04/09 00:04:26;;;;;;;1.23;0.47;;;;;;;;;;5104286;28;20245;-67
2022/04/09 00:06:52;;;;;;;0.50;0.50;;;;;;;;;;5103952;28;20220;-68
2022/04/09 00:09:19;;;;;;;0.60;0.60;;;;;;;;;;5104181;28;20253;-68
2022/04/09 00:11:45;;;;;;;0.40;0.40;;;;;;;;;;5104003;28;20200;-68
2022/04/09 00:14:13;;;;;;;0.60;0.60;;;;;;;;;;5103718;28;20538;-68
2022/04/09 00:16:39;;;;;;;0.50;0.40;;;;;;;;;;5103895;28;20202;-68
2022/04/09 00:19:06;;;;;;;0.50;0.50;;;;;;;;;;5104045;28;20203;-68
2022/04/09 00:21:32;;;;;;;0.65;0.65;;;;;;;;;;5103916;28;20433;-68
2022/04/09 00:23:58;;;;;;;0.77;0.77;;;;;;;;;;5103150;28;20192;-68
2022/04/09 00:26:25;;;;;;;0.73;0.73;;;;;;;;;;5103622;28;20199;-68
2022/04/09 00:28:51;;;;;;;0.60;0.60;;;;;;;;;;5103540;28;20196;-68
2022/04/09 00:31:19;;;;;;;0.80;0.80;;;;;;;;;;5103875;28;20195;-68
2022/04/09 00:33:45;;;;;;;0.60;0.60;;;;;;;;;;5103682;28;20261;-68
2022/04/09 00:36:11;;;;;;;0.60;0.60;;;;;;;;;;5103456;28;20375;-68
2022/04/09 00:38:38;;;;;;;0.50;0.50;;;;;;;;;;5103516;28;20196;-68
2022/04/09 00:41:04;;;;;;;0.77;0.77;;;;;;;;;;5103494;28;20196;-68
2022/04/09 00:43:30;;;;;;;0.50;0.50;;;;;;;;;;5103261;28;20198;-68
2022/04/09 00:45:56;;;;;;;0.60;0.60;;;;;;;;;;5103503;28;20204;-68
2022/04/09 00:48:24;;;;;;;0.70;0.70;;;;;;;;;;5103639;28;20195;-68
2022/04/09 00:50:51;;;;;;;0.68;0.68;;;;;;;;;;5103330;28;20199;-67
2022/04/09 00:53:20;;;;;;;0.80;0.80;;;;;;;;;;5103249;28;20218;-68
2022/04/09 00:58:40;;;;;;;0.50;0.50;;;;;;;;;;5078110;28;20203;-68
2022/04/09 01:01:06;;;;;;;0.90;0.90;;;;;;;;;;5103039;28;20511;-68
2022/04/09 01:03:35;;;;;;;0.50;0.50;;;;;;;;;;5103134;28;20191;-68
2022/04/09 01:06:02;;;;;;;0.70;0.70;;;;;;;;;;5102850;28;20261;-68
2022/04/09 01:08:28;;;;;;;0.77;0.77;;;;;;;;;;5102847;28;20204;-68
2022/04/09 01:10:54;;;;;;;0.88;0.88;;;;;;;;;;5102763;28;20200;-68
2022/04/09 01:13:21;;;;;;;0.90;0.90;;;;;;;;;;5102863;28;20554;-68
2022/04/09 01:15:47;;;;;;;0.80;0.80;;;;;;;;;;5103083;28;20199;-68
2022/04/09 01:18:15;;;;;;;0.88;0.88;;;;;;;;;;5102712;28;20206;-68
2022/04/09 01:20:43;;;;;;;1.15;1.05;;;;;;;;;;5102788;28;20546;-68
2022/04/09 01:23:10;;;;;;;0.85;0.85;;;;;;;;;;5102687;28;20491;-67
2022/04/09 01:25:37;;;;;;;0.75;0.75;;;;;;;;;;5102821;28;20196;-68
2022/04/09 01:28:04;;;;;;;0.80;0.80;;;;;;;;;;5102631;28;20537;-68
2022/04/09 01:30:30;;;;;;;1.00;0.88;;;;;;;;;;5102682;28;20196;-68
2022/04/09 01:32:57;;;;;;;0.80;0.80;;;;;;;;;;5102604;28;20204;-68
2022/04/09 01:35:23;;;;;;;0.90;0.90;;;;;;;;;;5101528;28;20188;-68
2022/04/09 01:37:49;;;;;;;0.93;0.85;;;;;;;;;;5102543;28;20241;-68
2022/04/09 01:40:17;;;;;;;0.73;0.73;;;;;;;;;;5102528;28;20233;-68
2022/04/09 01:42:43;;;;;;;0.80;0.80;;;;;;;;;;5101967;28;20266;-68
2022/04/09 01:45:10;;;;;;;0.73;0.73;;;;;;;;;;5102530;28;20195;-68
2022/04/09 01:47:40;;;;;;;0.98;0.98;;;;;;;;;;5102384;28;20208;-68
2022/04/09 01:50:08;;;;;;;0.85;0.85;;;;;;;;;;5102789;28;20241;-67
2022/04/09 01:52:34;;;;;;;1.00;1.00;;;;;;;;;;5102599;28;20191;-68
2022/04/09 01:55:01;;;;;;;0.93;0.93;;;;;;;;;;5102377;28;20277;-67
2022/04/09 01:57:28;;;;;;;0.85;0.85;;;;;;;;;;5102799;28;20195;-68
2022/04/09 01:59:54;;;;;;;0.95;0.95;;;;;;;;;;5102238;28;20249;-68
2022/04/09 02:02:21;;;;;;;1.00;1.00;;;;;;;;;;5102326;28;20196;-68
2022/04/09 02:04:47;;;;;;;1.30;1.30;;;;;;;;;;5102183;28;20200;-68
2022/04/09 02:07:14;;;;;;;1.00;1.00;;;;;;;;;;5102376;28;20518;-68
2022/04/09 02:09:40;;;;;;;1.30;1.30;;;;;;;;;;5102252;28;20275;-68
2022/04/09 02:12:07;;;;;;;1.20;1.20;;;;;;;;;;5102140;28;20266;-67
2022/04/09 02:14:34;;;;;;;2.70;1.38;;;;;;;;;;5102019;28;20216;-68
2022/04/09 02:17:01;;;;;;;1.20;1.20;;;;;;;;;;5102309;28;20195;-68
2022/04/09 02:19:27;;;;;;;1.50;1.50;;;;;;;;;;5102547;28;20200;-68
2022/04/09 02:21:53;;;;;;;1.85;1.85;;;;;;;;;;5102272;28;20284;-68
2022/04/09 02:24:20;;;;;;;1.42;1.42;;;;;;;;;;5102112;28;20417;-68
2022/04/09 02:26:46;;;;;;;2.08;1.40;;;;;;;;;;5101818;28;20258;-68
2022/04/09 02:29:12;;;;;;;2.13;1.80;;;;;;;;;;5102061;28;20257;-68
2022/04/09 02:31:40;;;;;;;1.75;1.65;;;;;;;;;;5102285;28;20507;-68
2022/04/09 02:34:06;;;;;;;2.03;1.90;;;;;;;;;;5102162;28;20394;-67
2022/04/09 02:36:33;;;;;;;1.90;1.90;;;;;;;;;;5101969;28;20196;-68
2022/04/09 02:38:59;;;;;;;1.85;1.85;;;;;;;;;;5102057;28;20254;-68
2022/04/09 02:41:26;;;;;;;2.13;2.03;;;;;;;;;;5101985;28;20564;-68
2022/04/09 02:43:53;;;;;;;2.28;2.17;;;;;;;;;;5101793;28;20225;-68
2022/04/09 02:46:19;;;;;;;2.10;2.00;;;;;;;;;;5103506;28;20503;-68
2022/04/09 02:48:46;;;;;;;2.63;2.42;;;;;;;;;;5105821;28;20218;-68
2022/04/09 02:51:13;;;;;;;2.35;2.30;;;;;;;;;;5105668;28;20499;-68
2022/04/09 02:53:39;;;;;;;2.70;2.42;;;;;;;;;;5105679;28;20212;-68
2022/04/09 02:56:05;;;;;;;2.15;2.05;;;;;;;;;;5105885;28;20211;-68
2022/04/09 02:58:32;;;;;;;2.40;2.20;;;;;;;;;;5105402;28;20199;-68
2022/04/09 03:00:58;;;;;;;2.80;2.70;;;;;;;;;;5105429;28;20552;-68
2022/04/09 03:03:24;;;;;;;3.40;3.05;;;;;;;;;;5105311;28;20196;-68
2022/04/09 03:05:52;;;;;;;2.65;2.53;;;;;;;;;;5105689;28;20219;-68
2022/04/09 03:08:18;;;;;;;2.85;2.67;;;;;;;;;;5105248;28;20398;-68
2022/04/09 03:10:44;;;;;;;3.05;2.95;;;;;;;;;;5105248;28;20235;-68
2022/04/09 03:13:11;;;;;;;3.10;2.85;;;;;;;;;;5105378;28;20196;-68
2022/04/09 03:15:37;;;;;;;3.08;2.95;;;;;;;;;;5105203;28;20215;-68
2022/04/09 03:18:03;;;;;;;3.25;3.00;;;;;;;;;;5104954;28;20274;-68
2022/04/09 03:20:29;;;;;;;3.00;2.80;;;;;;;;;;5105088;28;20196;-67
2022/04/09 03:22:57;;;;;;;3.10;3.00;;;;;;;;;;5104979;28;20196;-68
2022/04/09 03:25:23;;;;;;;3.75;3.33;;;;;;;;;;5104823;28;20192;-67
2022/04/09 03:27:50;;;;;;;3.13;2.92;;;;;;;;;;5104791;28;20211;-67
2022/04/09 03:30:16;;;;;;;3.85;3.65;;;;;;;;;;5105045;28;20207;-68
2022/04/09 03:32:43;;;;;;;3.35;3.15;;;;;;;;;;5105279;28;20387;-68
2022/04/09 03:35:10;;;;;;;2.75;2.65;;;;;;;;;;5104737;28;20219;-68
2022/04/09 03:37:36;;;;;;;3.15;2.97;;;;;;;;;;5104574;28;20201;-68
2022/04/09 03:40:05;;;;;;;3.33;3.17;;;;;;;;;;5104588;28;20241;-68
2022/04/09 03:42:31;;;;;;;3.03;2.83;;;;;;;;;;5104791;28;20195;-68
2022/04/09 03:44:58;;;;;;;3.72;3.47;;;;;;;;;;5104762;28;20196;-68
2022/04/09 03:47:24;;;;;;;3.33;3.13;;;;;;;;;;5104788;28;20220;-68
2022/04/09 03:49:50;;;;;;;3.13;3.03;;;;;;;;;;5104536;28;20526;-68
2022/04/09 03:52:16;;;;;;;3.17;3.08;;;;;;;;;;5104385;28;20499;-68
2022/04/09 03:54:43;;;;;;;2.92;2.83;;;;;;;;;;5104733;28;20223;-68
2022/04/09 03:57:10;;;;;;;2.95;2.75;;;;;;;;;;5103405;28;20257;-68
2022/04/09 03:59:36;;;;;;;3.55;3.22;;;;;;;;;;5104598;28;20203;-68
2022/04/09 04:02:03;;;;;;;3.20;3.10;;;;;;;;;;5104313;28;20195;-68
2022/04/09 04:04:29;;;;;;;3.55;3.35;;;;;;;;;;5104162;28;20200;-68
2022/04/09 04:06:55;;;;;;;3.55;3.25;;;;;;;;;;5103730;28;20215;-68
2022/04/09 04:09:22;;;;;;;3.40;3.20;;;;;;;;;;5104139;28;20496;-68
2022/04/09 04:11:48;;;;;;;3.35;3.15;;;;;;;;;;5104292;28;20515;-68
2022/04/09 04:14:15;;;;;;;3.60;3.50;;;;;;;;;;5103926;28;20211;-68
2022/04/09 04:16:42;;;;;;;4.00;3.70;;;;;;;;;;5103882;28;20200;-68
2022/04/09 04:19:08;;;;;;;4.57;4.38;;;;;;;;;;5103987;28;20235;-68
2022/04/09 04:21:36;;;;;;;4.88;4.57;;;;;;;;;;5103763;28;20195;-68
2022/04/09 04:24:02;;;;;;;6.00;4.90;;;;;;;;;;5104010;28;20206;-68
2022/04/09 04:26:28;;;;;;;6.20;5.63;;;;;;;;;;5103754;28;20200;-68
2022/04/09 04:28:54;;;;;;;6.65;6.03;;;;;;;;;;5103631;28;20200;-67
2022/04/09 04:31:22;;;;;;;6.85;6.25;;;;;;;;;;5103648;28;20196;-67
2022/04/09 04:33:48;;;;;;;9.73;7.30;;;;;;;;;;5103595;28;20510;-66
2022/04/09 04:36:15;;;;;;;7.95;7.25;;;;;;;;;;5103663;28;20257;-67
2022/04/09 04:38:41;;;;;;;8.27;7.57;;;;;;;;;;5103710;28;20202;-67
2022/04/09 04:41:07;;;;;;;8.35;7.53;;;;;;;;;;5103625;28;20400;-67
2022/04/09 04:43:34;;;;;;;8.20;7.40;;;;;;;;;;5103544;28;20227;-67
2022/04/09 04:46:00;;;;;;;9.00;8.10;;;;;;;;;;5103206;28;20229;-67
2022/04/09 04:48:27;;;;;;;9.32;8.43;;;;;;;;;;5103303;28;20196;-68
2022/04/09 04:50:54;;;;;;;11.13;7.88;;;;;;;;;;5103111;28;20210;-67
2022/04/09 04:53:20;;;;;;;8.50;7.80;;;;;;;;;;5103506;28;20202;-67
2022/04/09 04:55:47;;;;;;;9.18;8.30;;;;;;;;;;5103315;28;20273;-67
2022/04/09 04:58:13;;;;;;;9.70;8.48;;;;;;;;;;5102915;28;20204;-67
2022/04/09 05:00:39;;;;;;;11.15;8.48;;;;;;;;;;5103254;28;20203;-67
2022/04/09 05:03:05;;;;;;;12.68;8.57;;;;;;;;;;5103145;28;20515;-66
2022/04/09 05:05:33;;;;;;;11.23;8.55;;;;;;;;;;5103351;28;20241;-67
2022/04/09 05:07:59;;;;;;;13.77;9.25;;;;;;;;;;5103011;28;20195;-67
2022/04/09 05:10:27;;;;;;;14.35;9.13;;;;;;;;;;5103008;28;20233;-67
2022/04/09 05:12:54;;;;;;;12.02;9.45;;;;;;;;;;5102995;28;20195;-67
2022/04/09 05:15:21;;;;;;;16.65;9.98;;;;;;;;;;5102805;28;20212;-67
2022/04/09 05:17:48;;;;;;;14.10;9.73;;;;;;;;;;5102524;28;20419;-66
2022/04/09 05:20:15;;;;;;;13.82;9.82;;;;;;;;;;5103000;28;20557;-66
2022/04/09 05:22:46;;;;;;;11.15;9.27;;;;;;;;;;5102967;28;20199;-66
2022/04/09 05:25:13;;;;;;;11.93;9.32;;;;;;;;;;5102964;28;20199;-66
2022/04/09 05:27:39;;;;;;;10.63;9.38;;;;;;;;;;5102419;28;20203;-66
2022/04/09 05:30:07;;;;;;;9.68;8.73;;;;;;;;;;5102587;28;20203;-68
2022/04/09 05:32:36;;;;;;;9.32;8.40;;;;;;;;;;5101735;28;20240;-65
2022/04/09 05:35:02;;;;;;;9.75;8.80;;;;;;;;;;5101268;28;20526;-65
2022/04/09 05:37:29;;;;;;;11.48;8.77;;;;;;;;;;5101349;28;20557;-65
2022/04/09 05:39:56;;;;;;;8.43;7.63;;;;;;;;;;5102080;28;20238;-65
2022/04/09 05:42:24;;;;;;;11.10;7.85;;;;;;;;;;5102378;28;20195;-65
2022/04/09 05:44:50;;;;;;;9.10;7.07;;;;;;;;;;5102503;28;20192;-66
2022/04/09 05:47:16;;;;;;;7.72;6.95;;;;;;;;;;5102043;28;20199;-65
2022/04/09 05:49:42;;;;;;;10.63;6.78;;;;;;;;;;5102703;28;20195;-65
2022/04/09 05:52:09;;;;;;;9.98;6.72;;;;;;;;;;5102802;28;20218;-65
2022/04/09 05:54:35;;;;;;;9.13;7.28;;;;;;;;;;5102385;28;20211;-65
2022/04/09 05:57:05;;;;;;;8.32;7.05;;;;;;;;;;5102256;28;20199;-65
2022/04/09 05:59:32;;;;;;;9.90;6.97;;;;;;;;;;5102089;28;20436;-65
2022/04/09 06:01:58;;;;;;;8.90;6.72;;;;;;;;;;5102565;28;20200;-65
2022/04/09 06:04:24;;;;;;;12.00;7.13;;;;;;;;;;5102306;28;20195;-65
2022/04/09 06:06:51;;;;;;;8.35;7.55;;;;;;;;;;5102168;28;20588;-65
2022/04/09 06:09:17;;;;;;;7.97;6.85;;;;;;;;;;5102405;28;20200;-66
2022/04/09 06:11:44;;;;;;;10.45;7.40;;;;;;;;;;5102228;28;20199;-66
2022/04/09 06:14:11;;;;;;;8.70;7.68;;;;;;;;;;5102168;28;20196;-66
2022/04/09 06:16:38;;;;;;;8.98;7.95;;;;;;;;;;5102110;28;20242;-65
2022/04/09 06:19:05;;;;;;;11.52;7.65;;;;;;;;;;5102291;28;20204;-65
2022/04/09 06:21:32;;;;;;;8.68;6.50;;;;;;;;;;5104321;28;20424;-65
2022/04/09 06:23:59;;;;;;;7.30;6.63;;;;;;;;;;5106100;28;20195;-66
2022/04/09 06:26:25;;;;;;;9.18;6.53;;;;;;;;;;5105924;28;20507;-65
2022/04/09 06:28:51;;;;;;;7.90;6.57;;;;;;;;;;5105889;28;20448;-65
2022/04/09 06:31:19;;;;;;;7.07;6.38;;;;;;;;;;5106593;28;20233;-67
2022/04/09 06:33:45;;;;;;;9.75;7.07;;;;;;;;;;5106004;28;20196;-67
2022/04/09 06:36:12;;;;;;;11.07;7.93;;;;;;;;;;5105556;28;20219;-67
2022/04/09 06:38:38;;;;;;;8.32;7.18;;;;;;;;;;5106071;28;20202;-67
2022/04/09 06:41:04;;;;;;;15.35;8.63;;;;;;;;;;5105676;28;20204;-67
2022/04/09 06:43:31;;;;;;;9.15;7.25;;;;;;;;;;5105660;28;20226;-67
2022/04/09 06:45:57;;;;;;;9.85;8.27;;;;;;;;;;5105640;28;20191;-66
2022/04/09 06:48:24;;;;;;;12.88;7.00;;;;;;;;;;5105654;28;20293;-67
2022/04/09 06:50:51;;;;;;;9.43;6.18;;;;;;;;;;5105776;28;20200;-67
2022/04/09 06:53:17;;;;;;;8.50;5.70;;;;;;;;;;5105569;28;20548;-66
2022/04/09 06:55:43;;;;;;;6.88;6.28;;;;;;;;;;5105455;28;20535;-66
2022/04/09 06:58:10;;;;;;;6.68;6.00;;;;;;;;;;5105515;28;20546;-66
2022/04/09 07:00:37;;;;;;;12.05;7.20;;;;;;;;;;5105411;28;20203;-66
2022/04/09 07:03:03;;;;;;;6.68;5.90;;;;;;;;;;5105828;28;20203;-67
2022/04/09 07:05:31;;;;;;;7.15;5.85;;;;;;;;;;5105463;28;20249;-66
2022/04/09 07:07:57;;;;;;;8.38;6.07;;;;;;;;;;5105136;28;20202;-66
2022/04/09 07:10:24;;;;;;;7.15;5.45;;;;;;;;;;5105175;28;20196;-66
2022/04/09 07:12:50;;;;;;;8.25;5.28;;;;;;;;;;5105424;28;20199;-67
2022/04/09 07:15:16;;;;;;;6.78;5.53;;;;;;;;;;5105311;28;20222;-66
2022/04/09 07:17:42;;;;;;;6.82;5.57;;;;;;;;;;5105086;28;20203;-67
2022/04/09 07:20:09;;;;;;;7.18;4.63;;;;;;;;;;5105022;28;20196;-66
2022/04/09 07:22:38;;;;;;;5.53;4.93;;;;;;;;;;5104769;28;20241;-67
2022/04/09 07:25:05;;;;;;;7.03;4.97;;;;;;;;;;5104737;28;20214;-66
2022/04/09 07:27:35;;;;;;;5.50;4.95;;;;;;;;;;5104932;28;20202;-66
2022/04/09 07:30:02;;;;;;;5.70;5.20;;;;;;;;;;5105141;28;20195;-66
2022/04/09 07:32:28;;;;;;;7.50;5.43;;;;;;;;;;5104733;28;20204;-67
2022/04/09 07:34:54;;;;;;;14.57;5.60;;;;;;;;;;5104773;28;20222;-66
2022/04/09 07:37:21;;;;;;;7.72;5.43;;;;;;;;;;5104678;28;20241;-67
2022/04/09 07:39:48;;;;;;;5.50;5.00;;;;;;;;;;5104994;28;20223;-67
2022/04/09 07:42:14;;;;;;;7.22;5.28;;;;;;;;;;5105174;28;20195;-68
2022/04/09 07:44:41;;;;;;;5.60;5.18;;;;;;;;;;5106115;28;20527;-69
2022/04/09 07:47:07;;;;;;;5.80;4.78;;;;;;;;;;5104519;28;20218;-68
2022/04/09 07:49:33;;;;;;;7.65;5.22;;;;;;;;;;5104448;28;20195;-68
2022/04/09 07:51:59;;;;;;;8.27;4.90;;;;;;;;;;5104322;28;20241;-68
2022/04/09 07:54:29;;;;;;;4.82;4.35;;;;;;;;;;5104692;28;20196;-67
2022/04/09 07:56:56;;;;;;;4.72;4.43;;;;;;;;;;5104228;28;20215;-68
2022/04/09 07:59:23;;;;;;;8.38;4.97;;;;;;;;;;5104344;28;20499;-68
2022/04/09 08:01:49;;;;;;;6.57;4.65;;;;;;;;;;5104383;28;20203;-68
2022/04/09 08:04:15;;;;;;;7.03;4.25;;;;;;;;;;5104148;28;20495;-68
2022/04/09 08:06:41;;;;;;;4.65;4.25;;;;;;;;;;5103750;28;20542;-68
2022/04/09 08:09:07;;;;;;;4.90;4.10;;;;;;;;;;5104122;28;20551;-68
2022/04/09 08:11:34;;;;;;;6.25;4.68;;;;;;;;;;5103779;28;20529;-68
2022/04/09 08:14:01;;;;;;;7.43;4.53;;;;;;;;;;5103672;28;20506;-68
2022/04/09 08:16:28;;;;;;;5.05;4.32;;;;;;;;;;5103276;28;20253;-68
2022/04/09 08:18:54;;;;;;;8.38;4.55;;;;;;;;;;5103460;28;20218;-68
2022/04/09 08:21:20;;;;;;;6.13;4.75;;;;;;;;;;5103359;28;20200;-68
2022/04/09 08:23:47;;;;;;;8.65;4.07;;;;;;;;;;5103459;28;20200;-68
2022/04/09 08:26:13;;;;;;;6.30;4.00;;;;;;;;;;5103206;28;20526;-68
2022/04/09 08:28:40;;;;;;;4.53;3.42;;;;;;;;;;5103177;28;20413;-68
2022/04/09 08:31:08;;;;;;;6.93;3.50;;;;;;;;;;5103230;28;20507;-68
2022/04/09 08:33:34;;;;;;;7.60;3.53;;;;;;;;;;5103067;28;20203;-68
2022/04/09 08:36:02;;;;;;;4.50;3.65;;;;;;;;;;5103183;28;20849;-68
2022/04/09 08:38:28;;;;;;;6.45;4.45;;;;;;;;;;5103051;28;20606;-68
2022/04/09 08:40:55;;;;;;;7.05;3.58;;;;;;;;;;5103176;28;20200;-68
2022/04/09 08:43:21;;;;;;;3.72;3.05;;;;;;;;;;5102536;28;20242;-68
2022/04/09 08:45:48;;;;;;;5.50;3.47;;;;;;;;;;5102935;28;20245;-68
2022/04/09 08:48:15;;;;;;;6.25;3.25;;;;;;;;;;5102678;28;20204;-68
2022/04/09 08:50:43;;;;;;;3.80;3.33;;;;;;;;;;5102746;28;20241;-68
2022/04/09 08:53:10;;;;;;;4.18;3.28;;;;;;;;;;5102818;28;20427;-68
2022/04/09 08:55:36;;;;;;;7.32;3.92;;;;;;;;;;5103343;28;20261;-68
2022/04/09 08:58:03;;;;;;;8.43;4.38;;;;;;;;;;5102730;28;20195;-68
2022/04/09 09:00:29;;;;;;;5.47;3.47;;;;;;;;;;5102693;28;20213;-68
2022/04/09 09:02:57;;;;;;;7.15;3.80;;;;;;;;;;5102708;28;20195;-68
2022/04/09 09:05:31;;;;;;;7.75;3.40;;;;;;;;;;5103026;28;20204;-68
2022/04/09 09:07:58;;;;;;;6.68;3.55;;;;;;;;;;5102797;28;20386;-68
2022/04/09 09:10:24;;;;;;;6.95;3.00;;;;;;;;;;5102682;28;20196;-68
2022/04/09 09:12:57;;;;;;;7.78;3.10;;;;;;;;;;5102701;28;20195;-68
2022/04/09 09:15:24;;;;;;;5.45;3.47;;;;;;;;;;5102333;28;20200;-68
2022/04/09 09:17:55;;;;;;;8.98;3.55;;;;;;;;;;5102636;28;20207;-68
2022/04/09 09:20:21;;;;;;;9.50;3.00;;;;;;;;;;5102571;28;20199;-68
2022/04/09 09:22:49;;;;;;;7.38;3.40;;;;;;;;;;5102441;28;20196;-68
2022/04/09 09:25:15;;;;;;;7.13;3.33;;;;;;;;;;5102462;28;20230;-68
2022/04/09 09:27:41;;;;;;;11.93;3.25;;;;;;;;;;5102028;28;20199;-68
2022/04/09 09:30:09;;;;;;;7.80;3.00;;;;;;;;;;5102285;28;20207;-68
2022/04/09 09:32:35;;;;;;;5.78;2.55;;;;;;;;;;5102650;28;20533;-68
2022/04/09 09:35:02;;;;;;;9.73;2.80;;;;;;;;;;5102315;28;20434;-68
2022/04/09 09:37:30;;;;;;;2.55;2.40;;;;;;;;;;5101952;28;20287;-68
2022/04/09 09:39:58;;;;;;;5.88;2.58;;;;;;;;;;5102178;28;20237;-68
2022/04/09 09:42:25;;;;;;;7.38;2.33;;;;;;;;;;5101717;28;20388;-68
2022/04/09 09:44:51;;;;;;;4.50;2.40;;;;;;;;;;5101977;28;20208;-68
2022/04/09 09:47:18;;;;;;;8.00;2.72;;;;;;;;;;5101791;28;20229;-68
2022/04/09 09:49:53;;;;;;;5.97;2.55;;;;;;;;;;5101929;28;20199;-68
2022/04/09 09:52:23;;;;;;;7.60;2.72;;;;;;;;;;5101752;28;20503;-68
2022/04/09 09:54:58;;;;;;;8.45;2.67;;;;;;;;;;5101859;28;20199;-68
2022/04/09 09:57:26;;;;;;;9.18;2.90;;;;;;;;;;5105181;28;20222;-68
2022/04/09 09:59:54;;;;;;;9.50;2.10;;;;;;;;;;5106057;28;20204;-68
2022/04/09 10:02:21;;;;;;;5.47;2.05;;;;;;;;;;5106212;28;20245;-68
2022/04/09 10:04:47;;;;;;;7.53;2.35;;;;;;;;;;5105887;28;20195;-68
2022/04/09 10:07:14;;;;;;;5.13;2.50;;;;;;;;;;5105562;28;20198;-68
2022/04/09 10:09:40;;;;;;;4.95;2.00;;;;;;;;;;5105978;28;20196;-68
2022/04/09 10:12:11;;;;;;;5.22;2.10;;;;;;;;;;5106611;28;20234;-68
2022/04/09 10:14:39;;;;;;;3.70;2.83;;;;;;;;;;5106500;28;20419;-68
2022/04/09 10:17:06;;;;;;;6.55;2.58;;;;;;;;;;5106147;28;20219;-68
2022/04/09 10:19:33;;;;;;;5.65;2.40;;;;;;;;;;5106409;28;20503;-68
2022/04/09 10:22:00;;;;;;;7.55;2.65;;;;;;;;;;5106214;28;20196;-68
2022/04/09 10:24:27;;;;;;;4.78;2.20;;;;;;;;;;5106340;28;20522;-68
2022/04/09 10:26:56;;;;;;;6.85;2.53;;;;;;;;;;5106362;28;20430;-68
2022/04/09 10:29:23;;;;;;;4.47;1.92;;;;;;;;;;5105895;28;20241;-68
2022/04/09 10:31:51;;;;;;;3.35;2.13;;;;;;;;;;5106181;28;20529;-68
2022/04/09 10:34:18;;;;;;;7.68;2.55;;;;;;;;;;5106030;28;20295;-68
2022/04/09 10:37:02;;;;;;;11.05;2.70;;;;;;;;;;5105601;28;20223;-68
2022/04/09 10:39:36;;;;;;;5.82;2.45;;;;;;;;;;5105770;28;20230;-68
2022/04/09 10:42:03;;;;;;;5.70;1.98;;;;;;;;;;5105906;28;20200;-68
2022/04/09 10:44:37;;;;;;;5.60;1.90;;;;;;;;;;5105813;28;20241;-68
2022/04/09 10:47:04;;;;;;;5.90;2.00;;;;;;;;;;5105215;28;20498;-68
2022/04/09 10:49:31;;;;;;;5.28;2.13;;;;;;;;;;5105625;28;20234;-68
2022/04/09 10:52:11;;;;;;;5.90;1.80;;;;;;;;;;5105624;28;20235;-68
2022/04/09 10:54:37;;;;;;;4.10;1.67;;;;;;;;;;5105690;28;20234;-68
2022/04/09 10:57:07;;;;;;;6.05;2.00;;;;;;;;;;5105276;28;20216;-68
2022/04/09 10:59:34;;;;;;;6.93;2.40;;;;;;;;;;5105318;28;20206;-68
2022/04/09 11:02:04;;;;;;;4.63;1.70;;;;;;;;;;5105701;28;20202;-68
2022/04/09 11:04:43;;;;;;;5.50;2.38;;;;;;;;;;5105548;28;20195;-69
2022/04/09 11:07:10;;;;;;;4.07;1.83;;;;;;;;;;5104821;28;20191;-68
2022/04/09 11:09:42;;;;;;;4.40;1.60;;;;;;;;;;5105274;28;20196;-68
2022/04/09 11:12:08;;;;;;;5.32;1.90;;;;;;;;;;5105230;28;20204;-68
2022/04/09 11:14:42;;;;;;;5.50;1.90;;;;;;;;;;5105424;28;20203;-68
2022/04/09 11:17:15;;;;;;;5.93;1.77;;;;;;;;;;5105103;28;20216;-68
2022/04/09 11:19:42;;;;;;;8.13;2.53;;;;;;;;;;5105253;28;20195;-68
2022/04/09 11:22:09;;;;;;;7.57;2.45;;;;;;;;;;5105104;28;20242;-68
2022/04/09 11:24:36;;;;;;;7.03;2.13;;;;;;;;;;5104939;28;20203;-68
2022/04/09 11:27:03;;;;;;;3.88;1.98;;;;;;;;;;5105043;28;20237;-68
2022/04/09 11:29:32;;;;;;;5.13;2.22;;;;;;;;;;5105107;28;20211;-68
2022/04/09 11:31:58;;;;;;;6.85;2.00;;;;;;;;;;5104959;28;20515;-68
2022/04/09 11:34:27;;;;;;;6.63;2.00;;;;;;;;;;5104986;28;20419;-68
2022/04/09 11:37:07;;;;;;;5.00;2.08;;;;;;;;;;5104541;28;20384;-67
2022/04/09 11:39:37;;;;;;;8.13;2.22;;;;;;;;;;5104930;28;20195;-67
2022/04/09 11:42:03;;;;;;;4.80;2.17;;;;;;;;;;5105024;28;20241;-68
2022/04/09 11:44:30;;;;;;;10.25;2.70;;;;;;;;;;5104648;28;20233;-68
2022/04/09 11:46:58;;;;;;;8.23;3.38;;;;;;;;;;5104540;28;20196;-68
2022/04/09 11:49:31;;;;;;;5.70;2.70;;;;;;;;;;5104644;28;20218;-68
2022/04/09 11:51:57;;;;;;;5.22;2.15;;;;;;;;;;5104761;28;20201;-68
2022/04/09 11:54:25;;;;;;;5.25;2.10;;;;;;;;;;5104629;28;20200;-68
2022/04/09 11:56:51;;;;;;;6.80;2.58;;;;;;;;;;5104020;28;20283;-68
2022/04/09 11:59:18;;;;;;;4.45;2.28;;;;;;;;;;5104489;28;20196;-68
2022/04/09 12:01:45;;;;;;;6.10;2.17;;;;;;;;;;5104304;28;20226;-68
2022/04/09 12:04:12;;;;;;;2.38;1.65;;;;;;;;;;5104289;28;20196;-67
2022/04/09 12:06:40;;;;;;;5.82;1.90;;;;;;;;;;5103961;28;20257;-68
2022/04/09 12:09:06;;;;;;;2.65;1.58;;;;;;;;;;5104358;28;20203;-68
2022/04/09 12:11:33;;;;;;;4.45;1.58;;;;;;;;;;5104196;28;20208;-68
2022/04/09 12:14:08;;;;;;;3.08;1.83;;;;;;;;;;5104084;28;20195;-68
2022/04/09 12:16:37;;;;;;;6.10;2.13;;;;;;;;;;5103534;28;20249;-68
2022/04/09 12:19:05;;;;;;;5.88;2.03;;;;;;;;;;5103292;28;20233;-68
2022/04/09 12:21:32;;;;;;;5.00;1.55;;;;;;;;;;5103908;28;20595;-68
2022/04/09 12:24:03;;;;;;;3.00;1.63;;;;;;;;;;5104367;28;20511;-68
2022/04/09 12:26:30;;;;;;;4.55;1.77;;;;;;;;;;5103739;28;20199;-67
2022/04/09 12:29:11;;;;;;;5.68;2.10;;;;;;;;;;5103626;28;20424;-68
2022/04/09 12:31:37;;;;;;;7.63;2.40;;;;;;;;;;5104164;28;20257;-67
2022/04/09 12:34:04;;;;;;;2.47;1.38;;;;;;;;;;5103841;28;20205;-68
2022/04/09 12:36:30;;;;;;;5.55;1.70;;;;;;;;;;5103433;28;20580;-68
2022/04/09 12:38:56;;;;;;;4.93;1.60;;;;;;;;;;5103787;28;20204;-67
2022/04/09 12:41:24;;;;;;;3.60;1.80;;;;;;;;;;5103563;28;20222;-67
2022/04/09 12:43:52;;;;;;;4.72;1.85;;;;;;;;;;5103509;28;20204;-67
2022/04/09 12:46:19;;;;;;;7.60;1.70;;;;;;;;;;5103366;28;20206;-67
2022/04/09 12:48:47;;;;;;;1.95;1.50;;;;;;;;;;5103391;28;20196;-68
2022/04/09 12:51:14;;;;;;;4.70;1.88;;;;;;;;;;5103542;28;20216;-67
2022/04/09 12:53:42;;;;;;;2.67;1.40;;;;;;;;;;5103279;28;20272;-68
2022/04/09 12:56:08;;;;;;;3.10;1.30;;;;;;;;;;5103005;28;20200;-68
2022/04/09 12:58:36;;;;;;;1.77;1.50;;;;;;;;;;5103458;28;20365;-68
2022/04/09 13:01:03;;;;;;;3.55;1.67;;;;;;;;;;5103624;28;20207;-68
2022/04/09 13:03:32;;;;;;;4.68;1.70;;;;;;;;;;5104533;28;20200;-68
2022/04/09 13:05:58;;;;;;;4.70;1.83;;;;;;;;;;5103236;28;20254;-68
2022/04/09 13:08:26;;;;;;;5.30;1.90;;;;;;;;;;5102892;28;20230;-68
2022/04/09 13:10:52;;;;;;;7.85;1.83;;;;;;;;;;5102940;28;20222;-68
2022/04/09 13:13:19;;;;;;;5.47;1.73;;;;;;;;;;5103264;28;20206;-68
2022/04/09 13:15:46;;;;;;;3.00;1.40;;;;;;;;;;5103090;28;20420;-68
2022/04/09 13:18:13;;;;;;;3.45;1.60;;;;;;;;;;5102683;28;20277;-68
2022/04/09 13:20:39;;;;;;;7.25;2.45;;;;;;;;;;5103394;28;20214;-68
2022/04/09 13:23:07;;;;;;;6.72;2.03;;;;;;;;;;5102763;28;20310;-69
2022/04/09 13:25:33;;;;;;;5.15;1.70;;;;;;;;;;5102886;28;20503;-68
2022/04/09 13:27:59;;;;;;;3.95;1.70;;;;;;;;;;5102878;28;20495;-68
2022/04/09 13:30:26;;;;;;;4.57;1.63;;;;;;;;;;5102887;28;20515;-68
2022/04/09 13:32:54;;;;;;;2.08;1.58;;;;;;;;;;5102921;28;20416;-68
2022/04/09 13:35:23;;;;;;;11.80;1.95;;;;;;;;;;5102594;28;20233;-68
2022/04/09 13:37:49;;;;;;;4.60;2.00;;;;;;;;;;5102403;28;20527;-68
2022/04/09 13:40:16;;;;;;;4.65;1.77;;;;;;;;;;5102885;28;20196;-69
2022/04/09 13:42:42;;;;;;;2.58;1.33;;;;;;;;;;5102835;28;20471;-69
2022/04/09 13:45:10;;;;;;;1.27;1.17;;;;;;;;;;5102649;28;20208;-68
2022/04/09 13:47:36;;;;;;;5.68;1.70;;;;;;;;;;5102340;28;20192;-69
2022/04/09 13:50:05;;;;;;;4.93;1.58;;;;;;;;;;5102546;28;20196;-68
2022/04/09 13:52:31;;;;;;;3.55;1.77;;;;;;;;;;5102310;28;20199;-68
2022/04/09 13:54:59;;;;;;;5.93;1.50;;;;;;;;;;5102511;28;20217;-68
2022/04/09 13:57:26;;;;;;;7.75;3.28;;;;;;;;;;5102292;28;20438;-68
2022/04/09 13:59:52;;;;;;;3.13;1.75;;;;;;;;;;5102520;28;20227;-68
2022/04/09 14:02:19;;;;;;;5.13;2.03;;;;;;;;;;5102843;28;20196;-68
2022/04/09 14:04:47;;;;;;;5.43;1.77;;;;;;;;;;5102450;28;20430;-68
2022/04/09 14:07:15;;;;;;;4.00;1.67;;;;;;;;;;5102271;28;20192;-68
2022/04/09 14:09:41;;;;;;;3.08;1.50;;;;;;;;;;5102514;28;20202;-68
2022/04/09 14:12:08;;;;;;;1.88;1.48;;;;;;;;;;5102341;28;20202;-68
2022/04/09 14:14:34;;;;;;;2.72;1.50;;;;;;;;;;5102554;28;20195;-68
2022/04/09 14:17:00;;;;;;;2.28;1.30;;;;;;;;;;5101970;28;20216;-68
2022/04/09 14:19:27;;;;;;;8.82;1.40;;;;;;;;;;5102312;28;20204;-68
2022/04/09 14:21:53;;;;;;;4.72;1.33;;;;;;;;;;5102259;28;20407;-68
2022/04/09 14:24:21;;;;;;;2.67;1.40;;;;;;;;;;5102420;28;20502;-69
2022/04/09 14:26:48;;;;;;;5.45;2.15;;;;;;;;;;5102121;28;20267;-68
2022/04/09 14:29:14;;;;;;;4.53;1.55;;;;;;;;;;5102358;28;20394;-68
2022/04/09 14:31:41;;;;;;;3.05;1.30;;;;;;;;;;5102411;28;20233;-68
2022/04/09 14:34:07;;;;;;;3.35;1.58;;;;;;;;;;5100986;28;20196;-69
2022/04/09 14:36:34;;;;;;;5.40;1.65;;;;;;;;;;5102034;28;20263;-68
2022/04/09 14:39:00;;;;;;;3.72;1.60;;;;;;;;;;5102324;28;20223;-68
2022/04/09 14:41:28;;;;;;;5.82;1.50;;;;;;;;;;5102429;28;20215;-68
2022/04/09 14:43:56;;;;;;;5.22;1.67;;;;;;;;;;5105783;28;20199;-68
2022/04/09 14:46:23;;;;;;;1.73;1.23;;;;;;;;;;5105571;28;20233;-68